Main page
METAR-TAF:

METAR-TAF

Airports :

Ireland West Airport Knock

Knock, Ireland

latitude: 53-54-37N, longitude: 008-49-05W, elevation: 203 m

Current weather observation

The report was made 6 hours and 57 minutes ago, at 19:00 UTC
Wind 11 kt from the East
Temperature 6°C
Humidity 93%
Pressure 1026 hPa
Visibility 10 km or more
no clouds below 1500 m and no cumulonimbus

METAR: EIKN 181900Z 09011KT CAVOK 06/05 Q1026 NOSIG

Time: 01:57 (01:57 UTC)

Forecast

The report was made 2 hours and 57 minutes ago, at 23:00 UTC
Forecast valid from 19 at 00 UTC to 19 at 24 UTC
Wind 10 kt from the East
Visibility 10 km or more
Few clouds at a height of 1500 ft
Temporary
from 19 at 00 UTC to 19 at 05 UTC
Visibility: 4000 m
mist
Temporary
from 19 at 09 UTC to 19 at 15 UTC
Broken clouds at a height of 1200 ft

TAF: EIKN 182300Z 1900/1924 10010KT 9999 FEW015 TEMPO 1900/1905 4000 BR TEMPO 1909/1915 BKN012

Weather observations and forecasts of more than 4000 airports (METAR and TAF reports).

The available stations are represented by yellow and red dots on the map.

Hover mouse over dot to see the name of the station.

Then click to see weather observations and forecasts.

To change the map : click on the green buttons with a black cross to zoom in, on the green button with a dash to zoom out, or on the green arrows for adjacent maps.


METAR-TAF: